Time;durP1;ratioP1;P1;durP2;ratioP2;P2;SDS_P1;SDS_P2;PMS_P1;PMS_P2;Temp;Humidity;BMP_temperature;BMP_pressure;BME280_temperature;BME280_humidity;BME280_pressure;Samples;Min_cycle;Max_cycle;Signal;HPM_P1;HPM_P2
2021/03/28 00:01:52;;;;;;;5.70;4.03;;;19.40;64.50;;;;;;5031322;28;20552;-34
2021/03/28 00:04:28;;;;;;;8.83;4.07;;;19.60;65.10;;;;;;5121778;28;20435;-34
2021/03/28 00:07:05;;;;;;;6.60;3.80;;;19.70;64.30;;;;;;5120975;28;20461;-34
2021/03/28 00:09:49;;;;;;;9.03;4.57;;;19.60;63.80;;;;;;5118572;28;20985;-34
2021/03/28 00:12:27;;;;;;;8.60;3.97;;;19.60;64.30;;;;;;5120976;28;20444;-34
2021/03/28 00:15:05;;;;;;;5.17;3.40;;;19.50;64.60;;;;;;5119908;28;20499;-34
2021/03/28 00:17:41;;;;;;;6.87;3.73;;;19.60;66.60;;;;;;5117921;28;20453;-35
2021/03/28 00:20:32;;;;;;;5.20;3.60;;;19.50;65.00;;;;;;5124671;28;20876;-34
2021/03/28 00:23:17;;;;;;;8.10;3.97;;;19.30;64.70;;;;;;5125813;28;20566;-34
2021/03/28 00:25:53;;;;;;;4.87;3.80;;;19.40;65.50;;;;;;5126324;28;20488;-34
2021/03/28 00:28:35;;;;;;;8.60;4.30;;;19.20;64.40;;;;;;5125860;28;20452;-35
2021/03/28 00:31:25;;;;;;;6.77;3.80;;;19.20;65.50;;;;;;5120611;28;20454;-34
2021/03/28 00:34:15;;;;;;;13.17;5.27;;;19.10;64.10;;;;;;5121430;28;21018;-34
2021/03/28 00:36:49;;;;;;;7.93;4.20;;;19.20;67.20;;;;;;5125996;28;20606;-35
2021/03/28 00:39:36;;;;;;;6.33;3.60;;;19.30;64.40;;;;;;5125811;28;20472;-35
2021/03/28 00:42:10;;;;;;;6.73;4.10;;;19.10;66.50;;;;;;5120755;28;20468;-35
2021/03/28 00:45:03;;;;;;;5.60;4.13;;;18.80;67.90;;;;;;5125752;28;20468;-34
2021/03/28 00:47:35;;;;;;;6.43;3.47;;;18.70;67.30;;;;;;5126213;28;20494;-34
2021/03/28 00:50:17;;;;;;;8.30;3.90;;;18.50;70.10;;;;;;5124099;28;20435;-34
2021/03/28 00:52:56;;;;;;;7.90;4.50;;;18.50;69.20;;;;;;5120663;28;20589;-34
2021/03/28 00:55:29;;;;;;;9.73;4.47;;;18.50;69.20;;;;;;5125512;28;20445;-34
2021/03/28 00:58:12;;;;;;;6.27;3.80;;;18.50;69.40;;;;;;5123153;28;20964;-33
2021/03/28 01:01:01;;;;;;;5.00;3.90;;;18.40;66.60;;;;;;5125875;28;20420;-34
2021/03/28 01:03:45;;;;;;;9.70;3.60;;;18.30;66.50;;;;;;5124941;28;20502;-34
2021/03/28 01:06:18;;;;;;;6.17;3.43;;;18.40;68.50;;;;;;5121918;28;20560;-33
2021/03/28 01:09:03;;;;;;;4.80;4.07;;;18.40;68.90;;;;;;5125524;28;20450;-34
2021/03/28 01:11:49;;;;;;;5.97;3.57;;;18.40;67.40;;;;;;5124542;28;20445;-33
2021/03/28 01:14:37;;;;;;;5.47;3.80;;;18.40;68.00;;;;;;5126029;28;20441;-35
2021/03/28 01:17:37;;;;;;;4.10;3.30;;;18.30;69.70;;;;;;5119511;28;20471;-34
2021/03/28 01:20:20;;;;;;;4.87;3.87;;;18.20;69.20;;;;;;5126298;28;20502;-33
2021/03/28 01:23:06;;;;;;;5.83;4.10;;;18.20;69.40;;;;;;5125449;28;20452;-33
2021/03/28 01:26:07;;;;;;;6.27;4.60;;;18.20;67.70;;;;;;5125422;28;20484;-34
2021/03/28 01:28:48;;;;;;;6.57;4.30;;;18.10;68.10;;;;;;5124528;28;20528;-33
2021/03/28 01:31:28;;;;;;;6.30;3.83;;;18.10;67.20;;;;;;5124364;28;20944;-33
2021/03/28 01:34:14;;;;;;;4.50;3.60;;;18.10;69.40;;;;;;5121462;28;20504;-34
2021/03/28 01:36:48;;;;;;;5.37;3.63;;;17.90;70.70;;;;;;5125124;28;20452;-33
2021/03/28 01:39:23;;;;;;;6.17;4.20;;;17.80;71.80;;;;;;5125546;28;20451;-34
2021/03/28 01:41:59;;;;;;;5.77;3.40;;;17.70;72.10;;;;;;5124366;28;20473;-34
2021/03/28 01:44:43;;;;;;;6.07;2.83;;;17.70;72.30;;;;;;5124886;28;20476;-34
2021/03/28 01:47:28;;;;;;;5.87;4.03;;;17.50;73.30;;;;;;5110696;28;20473;-34
2021/03/28 01:50:34;;;;;;;8.83;7.17;;;17.40;73.50;;;;;;5125210;28;20460;-34
2021/03/28 01:53:18;;;;;;;10.70;9.70;;;17.30;73.40;;;;;;5077742;27;20441;-33
2021/03/28 01:55:54;;;;;;;7.00;6.33;;;17.20;74.80;;;;;;5123732;28;20494;-34
2021/03/28 01:58:36;;;;;;;6.40;4.70;;;17.10;74.10;;;;;;5123862;28;20457;-33
2021/03/28 02:01:17;;;;;;;7.37;4.60;;;17.00;74.30;;;;;;5124282;28;20467;-34
2021/03/28 02:03:55;;;;;;;6.47;4.80;;;17.00;75.60;;;;;;5124784;28;20441;-34
2021/03/28 02:06:43;;;;;;;4.57;4.13;;;16.90;80.10;;;;;;5124587;28;20564;-34
2021/03/28 02:09:29;;;;;;;5.80;4.10;;;16.70;80.00;;;;;;5108807;28;20437;-35
2021/03/28 02:12:08;;;;;;;4.97;3.73;;;16.60;79.40;;;;;;5113780;28;20540;-35
2021/03/28 02:15:31;;;;;;;5.57;3.93;;;16.60;79.00;;;;;;5124493;28;20513;-34
2021/03/28 02:18:22;;;;;;;4.87;4.40;;;16.40;82.70;;;;;;5021812;28;20746;-35
2021/03/28 02:20:56;;;;;;;6.73;4.90;;;16.30;83.60;;;;;;5021936;28;20480;-34
2021/03/28 02:23:41;;;;;;;6.07;5.40;;;16.10;84.50;;;;;;5017933;28;20451;-34
2021/03/28 02:26:33;;;;;;;5.63;5.13;;;16.00;86.80;;;;;;5021513;28;20496;-34
2021/03/28 02:29:13;;;;;;;5.10;4.70;;;15.90;89.70;;;;;;5018900;28;20449;-34
2021/03/28 02:32:14;;;;;;;6.13;5.50;;;15.80;89.50;;;;;;5021527;28;20547;-34
2021/03/28 02:34:59;;;;;;;5.97;5.10;;;15.70;89.20;;;;;;5012079;28;21014;-34
2021/03/28 02:37:53;;;;;;;8.33;5.53;;;15.50;91.50;;;;;;5021082;28;20492;-35
2021/03/28 02:40:38;;;;;;;6.03;5.43;;;15.40;92.90;;;;;;5020605;28;20476;-35
2021/03/28 02:43:23;;;;;;;6.87;6.13;;;15.30;93.00;;;;;;5019103;28;20458;-34
2021/03/28 02:46:17;;;;;;;8.67;6.27;;;15.10;93.20;;;;;;5016303;28;20575;-34
2021/03/28 02:49:25;;;;;;;8.10;6.90;;;15.00;96.40;;;;;;5019217;28;20545;-34
2021/03/28 02:52:18;;;;;;;8.33;6.63;;;14.90;95.70;;;;;;4995395;28;20482;-34
2021/03/28 02:55:29;;;;;;;6.30;5.77;;;14.80;96.70;;;;;;5021926;28;20459;-35
2021/03/28 02:58:12;;;;;;;6.47;5.83;;;14.60;97.30;;;;;;4970318;28;20451;-33
2021/03/28 03:00:56;;;;;;;8.53;7.13;;;14.50;96.90;;;;;;4960971;29;20494;-35
2021/03/28 03:03:46;;;;;;;11.37;7.70;;;14.40;99.00;;;;;;4969066;28;20484;-34
2021/03/28 03:06:48;;;;;;;9.20;8.40;;;14.30;99.80;;;;;;4961739;29;20517;-35
2021/03/28 03:09:27;;;;;;;10.10;8.10;;;14.20;99.90;;;;;;4955333;29;20536;-34
2021/03/28 03:12:16;;;;;;;9.00;8.03;;;14.20;99.90;;;;;;4965875;28;20519;-34
2021/03/28 03:15:04;;;;;;;11.90;9.80;;;14.20;99.90;;;;;;4957489;28;20585;-34
2021/03/28 03:18:01;;;;;;;11.10;10.10;;;14.10;99.90;;;;;;4966577;28;20457;-34
2021/03/28 03:21:20;;;;;;;12.93;11.00;;;14.00;99.90;;;;;;4967234;28;20456;-34
2021/03/28 03:24:28;;;;;;;12.50;11.30;;;13.90;99.90;;;;;;4996514;28;20463;-34
2021/03/28 03:27:39;;;;;;;16.17;14.63;;;13.80;99.90;;;;;;5000095;28;20986;-35
2021/03/28 03:30:37;;;;;;;16.67;15.07;;;13.80;99.90;;;;;;4981029;28;20452;-34
2021/03/28 03:33:33;;;;;;;14.93;13.53;;;13.70;99.90;;;;;;4980759;28;20499;-34
2021/03/28 03:36:20;;;;;;;14.20;12.77;;;13.60;99.90;;;;;;4980380;28;20464;-34
2021/03/28 03:39:11;;;;;;;15.60;14.00;;;13.50;99.90;;;;;;4970820;28;20518;-34
2021/03/28 03:42:07;;;;;;;15.60;13.87;;;13.50;99.90;;;;;;4976610;28;20511;-34
2021/03/28 03:45:18;;;;;;;16.40;14.80;;;13.40;99.90;;;;;;4975494;28;20918;-34
2021/03/28 03:47:58;;;;;;;17.77;16.07;;;13.40;99.90;;;;;;4968708;28;20456;-34
2021/03/28 03:50:57;;;;;;;18.23;16.40;;;13.30;99.90;;;;;;4980608;28;20499;-34
2021/03/28 03:53:42;;;;;;;19.13;17.30;;;13.30;99.90;;;;;;4978078;28;20575;-34
2021/03/28 03:56:20;;;;;;;19.60;17.67;;;13.20;99.90;;;;;;5022845;28;20457;-34
2021/03/28 03:59:11;;;;;;;18.07;16.37;;;13.20;99.90;;;;;;5015965;28;20971;-34
2021/03/28 04:01:56;;;;;;;18.90;17.10;;;13.10;99.90;;;;;;5026388;28;20446;-34
2021/03/28 04:04:45;;;;;;;18.93;16.00;;;13.00;99.90;;;;;;5026463;28;20445;-35
2021/03/28 04:07:42;;;;;;;19.10;17.40;;;12.90;99.90;;;;;;5127293;28;20461;-34
2021/03/28 04:10:30;;;;;;;19.57;17.80;;;12.80;99.90;;;;;;5093628;28;20883;-34
2021/03/28 04:13:22;;;;;;;17.90;16.00;;;12.80;99.90;;;;;;5128857;28;20483;-33
2021/03/28 04:16:31;;;;;;;17.30;15.67;;;12.70;99.90;;;;;;5128535;28;20449;-33
2021/03/28 04:19:28;;;;;;;16.93;15.13;;;12.60;99.90;;;;;;5055207;28;20451;-35
2021/03/28 04:22:22;;;;;;;15.40;13.90;;;12.60;99.90;;;;;;5050496;28;20518;-34
2021/03/28 04:25:03;;;;;;;16.70;15.00;;;12.50;99.90;;;;;;5057800;28;20459;-34
2021/03/28 04:28:03;;;;;;;14.33;12.63;;;12.50;99.90;;;;;;5065483;28;20464;-34
2021/03/28 04:30:52;;;;;;;14.43;13.03;;;12.40;99.90;;;;;;5031227;28;20629;-34
2021/03/28 04:33:37;;;;;;;15.90;11.37;;;12.30;99.90;;;;;;5066148;28;20920;-34
2021/03/28 04:36:18;;;;;;;12.83;11.23;;;12.20;99.90;;;;;;5065323;28;21216;-34
2021/03/28 04:39:33;;;;;;;13.67;12.23;;;12.20;99.90;;;;;;5067202;28;20535;-34
2021/03/28 04:42:34;;;;;;;13.50;11.57;;;12.10;99.90;;;;;;5019693;28;20861;-34
2021/03/28 04:45:42;;;;;;;14.17;12.63;;;12.10;99.90;;;;;;5024232;28;20460;-34
2021/03/28 04:48:46;;;;;;;13.60;12.30;;;12.10;99.90;;;;;;5006849;28;20574;-34
2021/03/28 04:51:58;;;;;;;13.70;12.30;;;12.10;99.90;;;;;;5080971;28;20462;-35
2021/03/28 04:55:03;;;;;;;13.30;12.10;;;12.10;99.90;;;;;;5059966;28;20447;-34
2021/03/28 04:57:52;;;;;;;15.00;13.40;;;12.10;99.90;;;;;;5079674;28;20495;-34
2021/03/28 05:01:00;;;;;;;14.60;12.50;;;12.00;99.90;;;;;;5075598;28;20507;-34
2021/03/28 05:04:05;;;;;;;15.07;13.53;;;12.00;99.90;;;;;;5084977;28;20459;-35
2021/03/28 05:07:13;;;;;;;16.37;14.77;;;12.00;99.90;;;;;;5082318;28;20482;-35
2021/03/28 05:10:03;;;;;;;16.30;14.67;;;11.90;99.90;;;;;;5078801;28;20467;-34
2021/03/28 05:13:14;;;;;;;16.00;14.50;;;11.80;99.90;;;;;;5077558;28;20452;-35
2021/03/28 05:16:18;;;;;;;16.50;14.17;;;11.80;99.90;;;;;;5080961;28;20460;-34
2021/03/28 05:19:20;;;;;;;15.10;13.70;;;11.80;99.90;;;;;;5122087;28;20444;-35
2021/03/28 05:22:23;;;;;;;15.43;13.90;;;11.70;99.90;;;;;;5125043;28;20449;-35
2021/03/28 05:25:27;;;;;;;15.55;13.95;;;11.70;99.90;;;;;;5118511;28;20448;-34
2021/03/28 05:28:44;;;;;;;16.30;14.60;;;11.60;99.90;;;;;;5124884;28;20535;-34
2021/03/28 05:31:47;;;;;;;15.40;13.83;;;11.50;99.90;;;;;;5123785;28;20739;-33
2021/03/28 05:35:03;;;;;;;15.30;13.80;;;11.50;99.90;;;;;;5124267;28;20826;-35
2021/03/28 05:38:23;;;;;;;15.80;14.23;;;11.40;99.90;;;;;;5125885;28;20829;-35
2021/03/28 05:41:27;;;;;;;17.50;15.57;;;11.30;99.90;;;;;;5121842;28;20858;-34
2021/03/28 05:44:26;;;;;;;16.30;14.60;;;11.30;99.90;;;;;;5122285;28;20492;-34
2021/03/28 05:47:26;;;;;;;23.70;15.43;;;11.30;99.90;;;;;;5124948;28;20978;-35
2021/03/28 05:50:28;;;;;;;16.83;15.20;;;11.30;99.90;;;;;;5096032;28;20474;-34
2021/03/28 05:53:35;;;;;;;16.70;14.93;;;11.30;99.90;;;;;;5124895;28;20444;-35
2021/03/28 05:56:42;;;;;;;16.63;15.03;;;11.30;99.90;;;;;;5124265;28;20450;-35
2021/03/28 05:59:42;;;;;;;17.33;15.53;;;11.20;99.90;;;;;;5125090;28;20445;-33
2021/03/28 06:02:37;;;;;;;18.17;15.63;;;11.20;99.90;;;;;;5114558;28;20478;-32
2021/03/28 06:05:51;;;;;;;20.10;15.73;;;11.10;99.90;;;;;;5125026;28;20463;-33
2021/03/28 06:08:54;;;;;;;21.87;14.63;;;11.10;99.90;;;;;;5115589;28;20297;-34
2021/03/28 06:12:02;;;;;;;16.67;14.83;;;11.10;99.90;;;;;;5122280;28;20485;-34
2021/03/28 06:14:45;;;;;;;19.52;15.57;;;11.10;99.90;;;;;;5121133;28;20443;-34
2021/03/28 06:17:38;;;;;;;20.23;15.30;;;11.10;99.90;;;;;;5124554;28;20519;-34
2021/03/28 06:20:37;;;;;;;17.52;15.70;;;11.10;99.90;;;;;;5124581;28;20442;-35
2021/03/28 06:23:54;;;;;;;18.85;16.50;;;11.00;99.90;;;;;;5125068;28;20687;-35
2021/03/28 06:26:53;;;;;;;16.20;14.05;;;10.90;99.90;;;;;;5113281;28;20302;-35
2021/03/28 06:29:57;;;;;;;17.83;14.65;;;10.80;99.90;;;;;;5107261;28;20203;-34
2021/03/28 06:33:11;;;;;;;16.67;14.88;;;10.80;99.90;;;;;;5112783;28;20258;-34
2021/03/28 06:36:22;;;;;;;17.27;14.70;;;10.70;99.90;;;;;;5041506;28;20212;-33
2021/03/28 06:39:19;;;;;;;17.75;15.95;;;10.70;99.90;;;;;;5033930;28;20265;-33
2021/03/28 06:42:08;;;;;;;17.50;15.50;;;10.60;99.90;;;;;;5036853;28;20299;-33
2021/03/28 06:45:26;;;;;;;17.75;15.88;;;10.60;99.90;;;;;;5041774;28;20267;-34
2021/03/28 06:48:31;;;;;;;16.88;15.27;;;10.50;99.90;;;;;;4936232;28;20210;-33
2021/03/28 06:51:38;;;;;;;17.40;14.95;;;10.50;99.90;;;;;;4982299;28;20321;-33
2021/03/28 06:54:57;;;;;;;18.30;15.63;;;10.50;99.90;;;;;;4981728;28;20222;-34
2021/03/28 06:58:11;;;;;;;16.23;14.60;;;10.40;99.90;;;;;;4981247;28;20612;-34
2021/03/28 07:01:28;;;;;;;16.95;14.32;;;10.30;99.90;;;;;;4915775;29;20263;-34
2021/03/28 07:04:33;;;;;;;16.17;14.40;;;10.20;99.90;;;;;;4905789;29;20212;-33
2021/03/28 07:07:21;;;;;;;18.40;15.52;;;10.10;99.90;;;;;;4905242;29;20610;-33
2021/03/28 07:10:08;;;;;;;17.30;15.27;;;10.10;99.90;;;;;;4904658;29;20575;-35
2021/03/28 07:12:56;;;;;;;19.02;16.70;;;10.10;99.90;;;;;;4961875;29;20215;-34
2021/03/28 07:15:40;;;;;;;22.20;17.73;;;10.00;99.90;;;;;;4962787;29;20273;-34
2021/03/28 07:18:45;;;;;;;23.30;18.17;;;10.00;99.90;;;;;;4962052;29;20206;-34
2021/03/28 07:21:40;;;;;;;23.42;18.33;;;10.00;99.90;;;;;;4980673;28;20666;-34
2021/03/28 07:24:34;;;;;;;17.70;15.75;;;9.90;99.90;;;;;;5021187;28;20196;-34
2021/03/28 07:27:51;;;;;;;19.80;17.73;;;9.80;99.90;;;;;;5015259;28;20231;-35
2021/03/28 07:30:56;;;;;;;18.20;15.82;;;9.80;99.90;;;;;;5001123;28;20274;-35
2021/03/28 07:33:53;;;;;;;18.13;16.05;;;9.80;99.90;;;;;;5022052;28;20211;-35
2021/03/28 07:36:44;;;;;;;20.77;17.70;;;9.80;99.90;;;;;;5076877;28;20195;-34
2021/03/28 07:39:50;;;;;;;17.67;15.80;;;9.80;99.90;;;;;;5123598;28;20197;-34
2021/03/28 07:42:52;;;;;;;17.50;15.90;;;9.80;99.90;;;;;;5107436;28;20201;-34
2021/03/28 07:45:53;;;;;;;18.90;16.27;;;9.70;99.90;;;;;;5124106;28;20246;-34
2021/03/28 07:48:53;;;;;;;16.63;15.02;;;9.60;99.90;;;;;;5108100;28;20217;-34
2021/03/28 07:51:55;;;;;;;16.95;15.00;;;9.60;99.90;;;;;;5123525;28;20205;-33
2021/03/28 07:55:05;;;;;;;20.00;15.85;;;9.60;99.90;;;;;;5109895;28;20191;-34
2021/03/28 07:58:06;;;;;;;18.73;15.10;;;9.50;99.90;;;;;;5122576;28;20259;-34
2021/03/28 08:00:55;;;;;;;19.33;15.50;;;9.50;99.90;;;;;;5110437;28;20274;-34
2021/03/28 08:04:04;;;;;;;16.35;14.75;;;9.60;99.90;;;;;;5123420;28;20260;-34
2021/03/28 08:07:12;;;;;;;15.25;13.70;;;9.60;99.90;;;;;;5120606;28;20213;-34
2021/03/28 08:10:14;;;;;;;17.08;14.75;;;9.50;99.90;;;;;;5121807;28;20207;-34
2021/03/28 08:13:02;;;;;;;16.05;14.48;;;9.50;99.90;;;;;;5112849;28;20271;-34
2021/03/28 08:15:58;;;;;;;16.58;14.98;;;9.50;99.90;;;;;;5123362;28;20204;-34
2021/03/28 08:18:53;;;;;;;18.70;15.90;;;9.50;99.90;;;;;;5110466;28;20226;-35
2021/03/28 08:21:32;;;;;;;19.10;15.80;;;9.50;99.90;;;;;;5122910;28;20264;-34
2021/03/28 08:24:38;;;;;;;20.02;16.25;;;9.50;99.90;;;;;;5122927;28;20222;-34
2021/03/28 08:27:49;;;;;;;17.95;15.75;;;9.40;99.90;;;;;;5121731;28;20227;-34
2021/03/28 08:30:48;;;;;;;18.17;15.15;;;9.50;99.90;;;;;;5121848;28;20200;-34
2021/03/28 08:33:35;;;;;;;18.48;15.43;;;9.40;99.90;;;;;;5120167;28;20215;-34
2021/03/28 08:36:43;;;;;;;17.25;15.35;;;9.40;99.90;;;;;;5122986;28;20208;-34
2021/03/28 08:39:31;;;;;;;15.35;13.88;;;9.30;99.90;;;;;;5114735;28;20323;-35
2021/03/28 08:42:34;;;;;;;16.65;14.25;;;9.20;99.90;;;;;;5123854;28;20199;-34
2021/03/28 08:45:27;;;;;;;18.80;14.85;;;9.30;99.90;;;;;;5117563;28;20239;-34
2021/03/28 08:48:26;;;;;;;19.13;14.57;;;9.20;99.90;;;;;;5125962;28;20208;-34
2021/03/28 08:51:20;;;;;;;18.83;15.90;;;9.20;99.90;;;;;;5125694;28;20291;-34
2021/03/28 08:53:58;;;;;;;18.77;15.90;;;9.20;99.90;;;;;;5126952;28;20230;-34
2021/03/28 08:56:57;;;;;;;17.58;15.43;;;9.10;99.90;;;;;;5125781;28;20211;-34
2021/03/28 08:59:42;;;;;;;21.48;17.10;;;9.10;99.90;;;;;;5126692;28;20235;-34
2021/03/28 09:02:32;;;;;;;17.23;15.18;;;9.00;99.90;;;;;;5121583;28;20666;-34
2021/03/28 09:05:18;;;;;;;17.70;14.30;;;9.00;99.90;;;;;;5116705;28;20203;-34
2021/03/28 09:08:04;;;;;;;15.65;14.13;;;9.00;99.90;;;;;;5125996;28;20205;-34
2021/03/28 09:11:02;;;;;;;17.58;14.10;;;9.00;99.90;;;;;;5125142;28;20201;-34
2021/03/28 09:13:45;;;;;;;16.60;14.23;;;8.90;99.90;;;;;;5126152;28;20195;-35
2021/03/28 09:16:27;;;;;;;17.83;13.98;;;9.00;99.90;;;;;;5123135;28;20200;-34
2021/03/28 09:19:15;;;;;;;18.85;14.32;;;9.10;99.90;;;;;;5125810;28;20250;-34
2021/03/28 09:21:58;;;;;;;16.85;13.88;;;9.00;99.90;;;;;;5126022;28;20201;-34
2021/03/28 09:24:49;;;;;;;15.43;13.63;;;9.00;99.90;;;;;;5124501;28;20218;-34
2021/03/28 09:27:44;;;;;;;17.55;13.63;;;8.90;99.90;;;;;;5125184;28;20236;-34
2021/03/28 09:30:25;;;;;;;18.52;14.48;;;8.80;99.90;;;;;;5120801;28;20542;-34
2021/03/28 09:33:24;;;;;;;14.45;12.73;;;8.90;99.90;;;;;;5115194;28;20199;-34
2021/03/28 09:36:14;;;;;;;20.00;14.10;;;8.80;99.90;;;;;;5125842;28;20208;-34
2021/03/28 09:39:37;;;;;;;17.83;13.98;;;8.80;99.90;;;;;;5125159;28;20261;-34
2021/03/28 09:43:06;;;;;;;17.67;14.15;;;8.80;99.90;;;;;;5022192;28;20278;-34
2021/03/28 09:46:23;;;;;;;15.82;13.93;;;8.80;99.90;;;;;;4969761;28;20205;-34
2021/03/28 09:49:24;;;;;;;20.98;14.48;;;8.80;99.90;;;;;;4968111;28;20245;-34
2021/03/28 09:52:26;;;;;;;18.33;13.20;;;8.80;99.90;;;;;;4965927;28;20315;-35
2021/03/28 09:55:21;;;;;;;18.60;14.35;;;8.70;99.90;;;;;;4968569;28;20572;-35
2021/03/28 09:58:41;;;;;;;20.15;14.75;;;8.60;99.90;;;;;;4971430;28;20210;-35
2021/03/28 10:01:37;;;;;;;18.50;14.35;;;8.60;99.90;;;;;;4878309;29;20213;-34
2021/03/28 10:04:26;;;;;;;15.65;14.00;;;8.50;99.90;;;;;;4869743;29;20213;-34
2021/03/28 10:06:59;;;;;;;17.58;13.93;;;8.50;99.90;;;;;;4860556;29;20305;-35
2021/03/28 10:09:58;;;;;;;19.05;14.68;;;8.60;99.90;;;;;;4878212;29;20312;-34
2021/03/28 10:12:35;;;;;;;15.07;13.48;;;8.60;99.90;;;;;;4906605;29;20607;-34
2021/03/28 10:15:13;;;;;;;17.20;14.02;;;8.50;99.90;;;;;;4964817;28;20218;-33
2021/03/28 10:17:52;;;;;;;17.85;13.60;;;8.60;99.90;;;;;;4968151;28;20694;-34
2021/03/28 10:20:46;;;;;;;14.93;13.05;;;8.50;99.90;;;;;;4965660;28;20696;-35
2021/03/28 10:23:29;;;;;;;18.10;13.70;;;8.50;99.90;;;;;;5026788;28;20626;-34
2021/03/28 10:26:35;;;;;;;14.77;12.77;;;8.50;99.90;;;;;;5020031;28;20241;-34
2021/03/28 10:29:30;;;;;;;17.75;14.40;;;8.40;99.90;;;;;;5021811;28;20234;-35
2021/03/28 10:32:12;;;;;;;15.98;14.38;;;8.40;99.90;;;;;;5035407;28;20209;-35
2021/03/28 10:35:04;;;;;;;17.10;14.50;;;8.40;99.90;;;;;;5039191;28;20204;-34
2021/03/28 10:37:48;;;;;;;17.58;14.55;;;8.40;99.90;;;;;;5124277;28;20216;-34
2021/03/28 10:40:32;;;;;;;17.67;14.73;;;8.40;99.90;;;;;;5123087;28;20204;-34
2021/03/28 10:43:42;;;;;;;16.55;14.20;;;8.20;99.90;;;;;;5123726;28;20228;-34
2021/03/28 10:46:54;;;;;;;17.15;14.15;;;8.20;99.90;;;;;;5116867;28;20235;-34
2021/03/28 10:49:55;;;;;;;19.88;16.00;;;8.20;99.90;;;;;;5117609;28;20267;-34
2021/03/28 10:53:04;;;;;;;20.20;14.65;;;8.10;99.90;;;;;;5123116;28;20204;-34
2021/03/28 10:55:59;;;;;;;18.55;15.10;;;8.10;99.90;;;;;;5124614;28;20263;-34
2021/03/28 10:59:13;;;;;;;20.02;13.75;;;8.10;99.90;;;;;;5104363;28;20223;-34
2021/03/28 11:02:24;;;;;;;17.20;14.20;;;8.10;99.90;;;;;;5041029;28;20210;-34
2021/03/28 11:05:30;;;;;;;17.90;14.82;;;8.10;99.90;;;;;;5029974;28;20206;-33
2021/03/28 11:08:17;;;;;;;17.45;15.00;;;8.10;99.90;;;;;;5040718;28;20352;-34
2021/03/28 11:11:43;;;;;;;16.48;14.85;;;8.10;99.90;;;;;;5036524;28;20283;-34
2021/03/28 11:14:48;;;;;;;21.13;15.60;;;8.10;99.90;;;;;;4999392;28;20235;-34
2021/03/28 11:17:41;;;;;;;19.52;14.10;;;8.00;99.90;;;;;;5001167;28;20222;-34
2021/03/28 11:20:35;;;;;;;17.50;14.32;;;8.00;99.90;;;;;;4998014;28;20220;-34
2021/03/28 11:23:24;;;;;;;18.70;15.60;;;7.90;99.90;;;;;;5001214;28;20264;-34
2021/03/28 11:26:32;;;;;;;20.15;16.73;;;7.90;99.90;;;;;;5000614;28;20250;-34
2021/03/28 11:29:24;;;;;;;18.52;15.00;;;7.90;99.90;;;;;;4952154;28;20212;-34
2021/03/28 11:32:03;;;;;;;18.08;14.50;;;7.80;99.90;;;;;;5000666;28;20215;-34
2021/03/28 11:34:39;;;;;;;16.30;13.85;;;7.70;99.90;;;;;;5001328;28;20306;-34
2021/03/28 11:37:35;;;;;;;17.10;13.43;;;7.70;99.90;;;;;;5060776;28;20266;-34
2021/03/28 11:40:31;;;;;;;16.08;13.88;;;7.70;99.90;;;;;;5059755;28;20210;-34
2021/03/28 11:43:36;;;;;;;16.30;13.65;;;7.60;99.90;;;;;;5060076;28;20229;-34
2021/03/28 11:49:48;;;;;;;17.17;14.95;;;7.60;99.90;;;;;;4993892;28;20202;-33
2021/03/28 11:52:23;;;;;;;18.25;15.25;;;7.50;99.90;;;;;;5027252;28;20202;-34
2021/03/28 11:55:22;;;;;;;19.65;14.55;;;7.50;99.90;;;;;;5040040;28;20202;-33
2021/03/28 11:58:08;;;;;;;17.48;13.13;;;7.50;99.90;;;;;;5039356;28;20617;-33
2021/03/28 12:00:43;;;;;;;18.40;14.00;;;7.40;99.90;;;;;;5040272;28;20257;-33
2021/03/28 12:03:30;;;;;;;22.52;14.15;;;7.40;99.90;;;;;;5040144;28;20203;-33
2021/03/28 12:06:03;;;;;;;16.05;12.90;;;7.50;99.90;;;;;;5039643;28;20199;-33
2021/03/28 12:08:36;;;;;;;16.90;12.95;;;7.50;99.90;;;;;;5040167;28;20203;-33
2021/03/28 12:11:36;;;;;;;16.30;11.45;;;7.50;99.90;;;;;;5040174;28;20202;-32
2021/03/28 12:14:36;;;;;;;19.20;12.30;;;7.50;99.90;;;;;;5039695;28;20202;-33
2021/03/28 12:17:34;;;;;;;13.63;10.38;;;7.50;99.90;;;;;;5043820;28;20244;-33
2021/03/28 12:20:27;;;;;;;15.50;11.27;;;7.40;99.90;;;;;;5004454;28;20253;-33
2021/03/28 12:23:01;;;;;;;11.50;10.30;;;7.40;99.90;;;;;;5041667;28;20202;-33
2021/03/28 12:25:37;;;;;;;11.27;9.10;;;7.40;99.90;;;;;;5044091;28;20682;-34
2021/03/28 12:28:29;;;;;;;13.65;9.18;;;7.40;99.90;;;;;;5042571;28;20252;-34
2021/03/28 12:31:19;;;;;;;11.73;8.43;;;7.30;99.90;;;;;;5042626;28;20239;-33
2021/03/28 12:33:56;;;;;;;12.00;8.80;;;7.40;99.90;;;;;;5040448;28;20198;-33
2021/03/28 12:36:46;;;;;;;14.88;8.85;;;7.40;99.90;;;;;;5042990;28;20272;-33
2021/03/28 12:39:19;;;;;;;11.27;8.00;;;7.40;99.90;;;;;;5043903;28;20206;-33
2021/03/28 12:42:18;;;;;;;12.40;8.65;;;7.40;99.90;;;;;;5042532;28;20203;-33
2021/03/28 12:44:51;;;;;;;18.70;9.32;;;7.40;99.90;;;;;;5043645;28;20230;-32
2021/03/28 12:47:26;;;;;;;13.27;8.25;;;7.30;99.90;;;;;;5042956;28;20214;-32
2021/03/28 12:50:00;;;;;;;12.20;8.55;;;7.30;99.90;;;;;;5043812;28;20232;-33
2021/03/28 12:52:39;;;;;;;13.02;8.60;;;7.30;99.90;;;;;;5042614;28;20203;-33
2021/03/28 12:55:37;;;;;;;11.85;8.15;;;7.30;99.90;;;;;;5065746;28;20290;-33
2021/03/28 12:58:19;;;;;;;11.25;8.57;;;7.40;99.90;;;;;;5122247;28;20309;-33
2021/03/28 13:01:02;;;;;;;14.93;10.38;;;7.40;99.90;;;;;;5114284;28;20229;-33
2021/03/28 13:03:39;;;;;;;12.80;9.40;;;7.40;99.90;;;;;;5126453;28;20208;-33
2021/03/28 13:06:32;;;;;;;14.88;10.10;;;7.50;99.90;;;;;;5126125;28;20256;-33
2021/03/28 13:09:18;;;;;;;12.57;10.75;;;7.60;99.90;;;;;;5116650;28;20249;-33
2021/03/28 13:11:51;;;;;;;20.98;11.40;;;7.60;99.90;;;;;;5125050;28;20211;-32
2021/03/28 13:14:36;;;;;;;13.35;8.85;;;7.70;99.90;;;;;;5126828;28;20203;-33
2021/03/28 13:17:27;;;;;;;12.57;9.48;;;7.80;99.90;;;;;;5117095;28;20235;-33
2021/03/28 13:20:31;;;;;;;14.65;8.40;;;7.80;99.90;;;;;;5124034;28;20320;-33
2021/03/28 13:23:27;;;;;;;12.52;7.97;;;7.80;99.90;;;;;;5115776;28;20231;-33
2021/03/28 13:26:19;;;;;;;12.00;9.30;;;7.80;99.90;;;;;;5124082;28;20203;-33
2021/03/28 13:29:07;;;;;;;8.50;7.13;;;7.70;99.90;;;;;;5125294;28;20276;-33
2021/03/28 13:31:53;;;;;;;11.68;8.05;;;7.80;99.90;;;;;;5125671;28;20218;-33
2021/03/28 13:34:37;;;;;;;11.88;8.25;;;7.80;99.90;;;;;;5124958;28;20229;-33
2021/03/28 13:37:14;;;;;;;17.70;9.73;;;7.80;99.90;;;;;;5116430;28;20261;-33
2021/03/28 13:39:59;;;;;;;12.00;7.80;;;7.90;99.90;;;;;;5126111;28;20203;-34
2021/03/28 13:42:33;;;;;;;9.40;7.22;;;7.90;99.90;;;;;;5119663;28;20192;-33
2021/03/28 13:45:09;;;;;;;8.98;8.05;;;8.00;99.90;;;;;;5126211;28;20207;-34
2021/03/28 13:47:45;;;;;;;12.43;7.00;;;8.00;99.90;;;;;;5125582;28;20219;-34
2021/03/28 13:50:31;;;;;;;10.43;8.63;;;8.10;99.90;;;;;;5119350;28;20199;-33
2021/03/28 13:53:04;;;;;;;10.80;7.70;;;8.00;99.90;;;;;;5124648;28;20437;-33
2021/03/28 13:55:38;;;;;;;10.02;8.13;;;8.00;99.90;;;;;;5125703;28;20212;-33
2021/03/28 13:58:20;;;;;;;11.05;8.10;;;8.00;99.90;;;;;;5124172;28;20207;-34
2021/03/28 14:00:55;;;;;;;13.40;9.15;;;8.00;99.90;;;;;;5125378;28;20208;-34
2021/03/28 14:03:32;;;;;;;12.60;7.70;;;8.10;99.90;;;;;;5124634;28;20267;-34
2021/03/28 14:06:20;;;;;;;17.63;9.13;;;8.10;99.90;;;;;;5124224;28;20222;-34
2021/03/28 14:08:54;;;;;;;11.05;8.68;;;8.10;99.90;;;;;;5125043;28;20217;-34
2021/03/28 14:11:28;;;;;;;12.40;8.35;;;8.20;99.90;;;;;;5124176;28;20207;-34
2021/03/28 14:14:05;;;;;;;11.30;8.23;;;8.10;99.90;;;;;;5124589;28;20216;-34
2021/03/28 14:16:43;;;;;;;13.05;8.98;;;8.10;99.90;;;;;;5124659;28;20230;-34
2021/03/28 14:19:23;;;;;;;13.80;9.50;;;8.30;99.90;;;;;;5124649;28;20208;-34
2021/03/28 14:21:54;;;;;;;10.85;9.75;;;8.40;99.90;;;;;;5123736;28;20192;-33
2021/03/28 14:24:29;;;;;;;10.75;9.63;;;8.30;99.90;;;;;;5125550;28;20314;-34
2021/03/28 14:27:16;;;;;;;14.02;9.85;;;8.40;99.90;;;;;;5123763;28;20231;-34
2021/03/28 14:29:47;;;;;;;17.20;10.05;;;8.50;99.90;;;;;;5124836;28;20205;-34
2021/03/28 14:32:25;;;;;;;13.70;9.95;;;8.40;99.90;;;;;;5114798;28;20276;-33
2021/03/28 14:35:19;;;;;;;12.23;8.82;;;8.40;99.90;;;;;;5124386;28;20212;-33
2021/03/28 14:38:35;;;;;;;12.90;9.98;;;8.50;99.90;;;;;;5123730;28;20203;-34
2021/03/28 14:41:29;;;;;;;15.60;9.38;;;8.50;99.90;;;;;;5115636;28;20196;-34
2021/03/28 14:47:45;;;;;;;12.63;9.57;;;8.60;99.90;;;;;;5124489;28;20344;-34
2021/03/28 14:50:23;;;;;;;10.27;7.80;;;8.60;99.90;;;;;;5123413;28;20289;-34
2021/03/28 14:53:08;;;;;;;11.23;8.90;;;8.70;99.90;;;;;;5123756;28;20264;-34